Bookmark and Share
Track history (hours):
 

Kaprifol

Last reported at 2014-Apr-16 19:11 UTC. Time now 2014-Apr-17 15:35 UTC.
Position N 62°27' E 005°57'.

Length 90 m; draft 5.4 m.

Type: Tanker. MMSI: 210445000.

NotesDate/timePositionNaut miles runAvg speedWind from/ knotsBaromVisibWave heightAir tempDewpointWater temp
2014-Apr-16 19:11N 62°27' E 005°57'7 0.6
2014-Apr-16 06:33N 62°27' E 006°12'4 3.5
2014-Apr-16 05:24N 62°26' E 006°20'0 0.0
2014-Apr-16 04:24N 62°26' E 006°20'0 0.0
2014-Apr-16 03:29N 62°26' E 006°20'0 0.0
2014-Apr-16 00:05N 62°26' E 006°20'0 0.0
2014-Apr-15 23:30N 62°26' E 006°20'0 0.0
2014-Apr-15 22:23N 62°26' E 006°20'0 0.0
2014-Apr-15 21:17N 62°26' E 006°20'0 0.0
2014-Apr-15 20:05N 62°26' E 006°20'0 0.5
2014-Apr-15 19:33N 62°26' E 006°19'7 6.8
2014-Apr-15 18:33N 62°29' E 006°06'9 8.6
2014-Apr-15 17:33N 62°36' E 006°16'  
2014-Apr-11 21:33N 58°17' E 005°36'10 9.4
2014-Apr-11 20:32N 58°11' E 005°51'10 9.8
2014-Apr-11 19:33N 58°05' E 006°04'129 9.2
2014-Apr-11 05:32N 57°48' E 010°04'9 9.4
2014-Apr-11 04:33N 57°48' E 010°21'9 9.1
2014-Apr-11 03:33N 57°48' E 010°39'8 8.5
2014-Apr-11 02:33N 57°44' E 010°53'1010.0
2014-Apr-11 01:33N 57°38' E 011°06'1010.1
2014-Apr-11 00:33N 57°31' E 011°20'10 9.6
2014-Apr-10 23:33N 57°22' E 011°30'1010.3
2014-Apr-10 22:33N 57°13' E 011°36'2110.6
2014-Apr-10 20:33N 56°53' E 011°50'10 9.4
2014-Apr-10 19:31N 56°43' E 011°49'25 0.8
2014-Apr-09 11:20N 56°18' E 012°00'7 8.6
2014-Apr-09 10:34N 56°15' E 012°11'8 8.0
2014-Apr-09 09:34N 56°11' E 012°23'8 7.8
2014-Apr-09 08:34N 56°06' E 012°34'7 6.7
2014-Apr-09 07:33N 56°01' E 012°41'7 7.2
2014-Apr-09 06:33N 55°54' E 012°44'9 8.9
2014-Apr-09 05:34N 55°45' E 012°42'8 8.3
2014-Apr-09 04:33N 55°37' E 012°42'9 8.5
2014-Apr-09 03:34N 55°28' E 012°42'10 9.6
2014-Apr-09 02:34N 55°19' E 012°42'10 9.6
2014-Apr-09 01:34N 55°16' E 012°58'10 9.9
2014-Apr-09 00:34N 55°15' E 013°15'1110.3
2014-Apr-08 23:28N 55°15' E 013°35'910.3
2014-Apr-08 22:33N 55°14' E 013°51'1010.3
2014-Apr-08 21:33N 55°14' E 014°10'9 8.9
2014-Apr-08 20:33N 55°18' E 014°23'21 6.8
2014-Apr-08 17:33N 55°35' E 014°44'6 6.2
2014-Apr-08 16:32N 55°40' E 014°51'7 7.1
2014-Apr-08 15:33N 55°41' E 015°04'  

Dump ship's entire track history

sailing weather and tide predictions

Kaprifol — 5BXX2 — position and weather